sensor_id;sensor_type;location;lat;lon;timestamp;temperature;humidity
73547;SHT30;61807;48.384;-4.386;2022-08-21T00:02:17;17.69;72.10
73547;SHT30;61807;48.384;-4.386;2022-08-21T00:04:43;17.65;72.02
73547;SHT30;61807;48.384;-4.386;2022-08-21T00:07:09;17.65;71.99
73547;SHT30;61807;48.384;-4.386;2022-08-21T00:09:34;17.65;72.09
73547;SHT30;61807;48.384;-4.386;2022-08-21T00:11:59;17.63;72.18
73547;SHT30;61807;48.384;-4.386;2022-08-21T00:14:25;17.56;72.26
73547;SHT30;61807;48.384;-4.386;2022-08-21T00:16:50;17.52;72.53
73547;SHT30;61807;48.384;-4.386;2022-08-21T00:19:16;17.46;72.45
73547;SHT30;61807;48.384;-4.386;2022-08-21T00:21:41;17.43;72.47
73547;SHT30;61807;48.384;-4.386;2022-08-21T00:24:07;17.42;73.09
73547;SHT30;61807;48.384;-4.386;2022-08-21T00:26:32;17.38;72.95
73547;SHT30;61807;48.384;-4.386;2022-08-21T00:28:58;17.36;72.97
73547;SHT30;61807;48.384;-4.386;2022-08-21T00:31:23;17.39;73.03
73547;SHT30;61807;48.384;-4.386;2022-08-21T00:33:48;17.42;73.08
73547;SHT30;61807;48.384;-4.386;2022-08-21T00:36:14;17.43;73.01
73547;SHT30;61807;48.384;-4.386;2022-08-21T00:38:40;17.45;72.94
73547;SHT30;61807;48.384;-4.386;2022-08-21T00:41:07;17.46;73.12
73547;SHT30;61807;48.384;-4.386;2022-08-21T00:43:35;17.48;73.13
73547;SHT30;61807;48.384;-4.386;2022-08-21T00:46:01;17.52;73.12
73547;SHT30;61807;48.384;-4.386;2022-08-21T00:48:28;17.56;73.04
73547;SHT30;61807;48.384;-4.386;2022-08-21T00:51:00;17.59;73.06
73547;SHT30;61807;48.384;-4.386;2022-08-21T00:53:27;17.62;73.22
73547;SHT30;61807;48.384;-4.386;2022-08-21T00:55:53;17.63;73.21
73547;SHT30;61807;48.384;-4.386;2022-08-21T00:58:20;17.65;73.35
73547;SHT30;61807;48.384;-4.386;2022-08-21T01:00:48;17.69;73.26
73547;SHT30;61807;48.384;-4.386;2022-08-21T01:03:17;17.75;73.28
73547;SHT30;61807;48.384;-4.386;2022-08-21T01:05:44;17.76;73.35
73547;SHT30;61807;48.384;-4.386;2022-08-21T01:08:11;17.75;73.38
73547;SHT30;61807;48.384;-4.386;2022-08-21T01:10:39;17.75;73.42
73547;SHT30;61807;48.384;-4.386;2022-08-21T01:13:07;17.79;73.53
73547;SHT30;61807;48.384;-4.386;2022-08-21T01:15:38;17.80;73.41
73547;SHT30;61807;48.384;-4.386;2022-08-21T01:18:08;17.86;73.34
73547;SHT30;61807;48.384;-4.386;2022-08-21T01:20:35;17.86;73.21
73547;SHT30;61807;48.384;-4.386;2022-08-21T01:23:04;17.87;73.28
73547;SHT30;61807;48.384;-4.386;2022-08-21T01:25:30;17.85;73.32
73547;SHT30;61807;48.384;-4.386;2022-08-21T01:27:57;17.78;73.57
73547;SHT30;61807;48.384;-4.386;2022-08-21T01:30:26;17.75;73.64
73547;SHT30;61807;48.384;-4.386;2022-08-21T01:32:52;17.75;73.76
73547;SHT30;61807;48.384;-4.386;2022-08-21T01:35:19;17.73;73.77
73547;SHT30;61807;48.384;-4.386;2022-08-21T01:37:46;17.75;73.72
73547;SHT30;61807;48.384;-4.386;2022-08-21T01:40:14;17.75;73.82
73547;SHT30;61807;48.384;-4.386;2022-08-21T01:42:42;17.75;73.84
73547;SHT30;61807;48.384;-4.386;2022-08-21T01:45:08;17.72;73.88
73547;SHT30;61807;48.384;-4.386;2022-08-21T01:47:34;17.66;74.19
73547;SHT30;61807;48.384;-4.386;2022-08-21T01:50:00;17.63;74.32
73547;SHT30;61807;48.384;-4.386;2022-08-21T01:52:26;17.62;74.43
73547;SHT30;61807;48.384;-4.386;2022-08-21T01:54:53;17.65;74.68
73547;SHT30;61807;48.384;-4.386;2022-08-21T01:57:18;17.63;74.68
73547;SHT30;61807;48.384;-4.386;2022-08-21T01:59:44;17.62;74.40
73547;SHT30;61807;48.384;-4.386;2022-08-21T02:02:09;17.61;74.47
73547;SHT30;61807;48.384;-4.386;2022-08-21T02:04:35;17.61;74.58
73547;SHT30;61807;48.384;-4.386;2022-08-21T02:07:01;17.56;74.56
73547;SHT30;61807;48.384;-4.386;2022-08-21T02:09:26;17.56;74.53
73547;SHT30;61807;48.384;-4.386;2022-08-21T02:11:52;17.56;74.53
73547;SHT30;61807;48.384;-4.386;2022-08-21T02:14:18;17.53;74.51
73547;SHT30;61807;48.384;-4.386;2022-08-21T02:16:44;17.53;74.53
73547;SHT30;61807;48.384;-4.386;2022-08-21T02:19:10;17.51;74.55
73547;SHT30;61807;48.384;-4.386;2022-08-21T02:21:36;17.52;74.50
73547;SHT30;61807;48.384;-4.386;2022-08-21T02:24:02;17.52;74.50
73547;SHT30;61807;48.384;-4.386;2022-08-21T02:26:28;17.51;74.46
73547;SHT30;61807;48.384;-4.386;2022-08-21T02:28:54;17.53;74.34
73547;SHT30;61807;48.384;-4.386;2022-08-21T02:31:19;17.52;74.36
73547;SHT30;61807;48.384;-4.386;2022-08-21T02:33:45;17.53;74.32
73547;SHT30;61807;48.384;-4.386;2022-08-21T02:36:11;17.51;74.38
73547;SHT30;61807;48.384;-4.386;2022-08-21T02:38:38;17.49;74.45
73547;SHT30;61807;48.384;-4.386;2022-08-21T02:41:07;17.48;74.39
73547;SHT30;61807;48.384;-4.386;2022-08-21T02:43:33;17.49;74.43
73547;SHT30;61807;48.384;-4.386;2022-08-21T02:45:59;17.49;74.36
73547;SHT30;61807;48.384;-4.386;2022-08-21T02:48:27;17.51;74.37
73547;SHT30;61807;48.384;-4.386;2022-08-21T02:50:59;17.53;74.32
73547;SHT30;61807;48.384;-4.386;2022-08-21T02:53:25;17.51;74.38
73547;SHT30;61807;48.384;-4.386;2022-08-21T02:55:52;17.51;74.35
73547;SHT30;61807;48.384;-4.386;2022-08-21T02:58:23;17.51;74.28
73547;SHT30;61807;48.384;-4.386;2022-08-21T03:00:48;17.52;74.34
73547;SHT30;61807;48.384;-4.386;2022-08-21T03:03:15;17.46;74.29
73547;SHT30;61807;48.384;-4.386;2022-08-21T03:05:40;17.48;74.51
73547;SHT30;61807;48.384;-4.386;2022-08-21T03:08:09;17.45;74.56
73547;SHT30;61807;48.384;-4.386;2022-08-21T03:10:36;17.39;74.74
73547;SHT30;61807;48.384;-4.386;2022-08-21T03:13:02;17.38;74.65
73547;SHT30;61807;48.384;-4.386;2022-08-21T03:15:28;17.35;74.60
73547;SHT30;61807;48.384;-4.386;2022-08-21T03:17:53;17.35;74.82
73547;SHT30;61807;48.384;-4.386;2022-08-21T03:20:22;17.34;74.76
73547;SHT30;61807;48.384;-4.386;2022-08-21T03:22:49;17.34;74.78
73547;SHT30;61807;48.384;-4.386;2022-08-21T03:25:15;17.32;74.61
73547;SHT30;61807;48.384;-4.386;2022-08-21T03:27:41;17.35;74.61
73547;SHT30;61807;48.384;-4.386;2022-08-21T03:30:07;17.36;74.61
73547;SHT30;61807;48.384;-4.386;2022-08-21T03:32:33;17.32;74.68
73547;SHT30;61807;48.384;-4.386;2022-08-21T03:34:58;17.35;74.74
73547;SHT30;61807;48.384;-4.386;2022-08-21T03:37:25;17.35;74.61
73547;SHT30;61807;48.384;-4.386;2022-08-21T03:39:51;17.38;74.55
73547;SHT30;61807;48.384;-4.386;2022-08-21T03:42:16;17.43;74.64
73547;SHT30;61807;48.384;-4.386;2022-08-21T03:44:42;17.42;74.70
73547;SHT30;61807;48.384;-4.386;2022-08-21T03:47:07;17.43;74.75
73547;SHT30;61807;48.384;-4.386;2022-08-21T03:49:33;17.46;74.88
73547;SHT30;61807;48.384;-4.386;2022-08-21T03:51:59;17.52;74.94
73547;SHT30;61807;48.384;-4.386;2022-08-21T03:54:24;17.52;74.92
73547;SHT30;61807;48.384;-4.386;2022-08-21T03:56:50;17.56;74.78
73547;SHT30;61807;48.384;-4.386;2022-08-21T03:59:15;17.55;74.77
73547;SHT30;61807;48.384;-4.386;2022-08-21T04:01:51;17.62;74.85
73547;SHT30;61807;48.384;-4.386;2022-08-21T04:04:17;17.63;74.76
73547;SHT30;61807;48.384;-4.386;2022-08-21T04:06:42;17.63;74.84
73547;SHT30;61807;48.384;-4.386;2022-08-21T04:09:08;17.63;74.77
73547;SHT30;61807;48.384;-4.386;2022-08-21T04:11:33;17.61;74.81
73547;SHT30;61807;48.384;-4.386;2022-08-21T04:13:58;17.62;74.87
73547;SHT30;61807;48.384;-4.386;2022-08-21T04:16:24;17.63;74.97
73547;SHT30;61807;48.384;-4.386;2022-08-21T04:18:49;17.62;74.98
73547;SHT30;61807;48.384;-4.386;2022-08-21T04:21:15;17.61;75.02
73547;SHT30;61807;48.384;-4.386;2022-08-21T04:23:40;17.56;75.39
73547;SHT30;61807;48.384;-4.386;2022-08-21T04:26:06;17.51;75.39
73547;SHT30;61807;48.384;-4.386;2022-08-21T04:28:31;17.41;75.68
73547;SHT30;61807;48.384;-4.386;2022-08-21T04:30:57;17.36;75.89
73547;SHT30;61807;48.384;-4.386;2022-08-21T04:33:23;17.34;75.84
73547;SHT30;61807;48.384;-4.386;2022-08-21T04:35:49;17.31;76.06
73547;SHT30;61807;48.384;-4.386;2022-08-21T04:38:15;17.31;76.06
73547;SHT30;61807;48.384;-4.386;2022-08-21T04:40:40;17.25;76.18
73547;SHT30;61807;48.384;-4.386;2022-08-21T04:43:09;17.24;76.19
73547;SHT30;61807;48.384;-4.386;2022-08-21T04:45:35;17.25;76.33
73547;SHT30;61807;48.384;-4.386;2022-08-21T04:48:03;17.31;76.38
73547;SHT30;61807;48.384;-4.386;2022-08-21T04:53:02;17.36;76.34
73547;SHT30;61807;48.384;-4.386;2022-08-21T04:55:27;17.39;76.38
73547;SHT30;61807;48.384;-4.386;2022-08-21T04:57:54;17.36;76.24
73547;SHT30;61807;48.384;-4.386;2022-08-21T05:00:22;17.35;76.29
73547;SHT30;61807;48.384;-4.386;2022-08-21T05:02:48;17.35;76.36
73547;SHT30;61807;48.384;-4.386;2022-08-21T05:05:15;17.35;76.45
73547;SHT30;61807;48.384;-4.386;2022-08-21T05:07:42;17.36;76.58
73547;SHT30;61807;48.384;-4.386;2022-08-21T05:10:09;17.38;76.54
73547;SHT30;61807;48.384;-4.386;2022-08-21T05:12:34;17.43;76.52
73547;SHT30;61807;48.384;-4.386;2022-08-21T05:15:00;17.45;76.52
73547;SHT30;61807;48.384;-4.386;2022-08-21T05:17:25;17.51;76.60
73547;SHT30;61807;48.384;-4.386;2022-08-21T05:19:51;17.51;76.56
73547;SHT30;61807;48.384;-4.386;2022-08-21T05:22:21;17.55;76.66
73547;SHT30;61807;48.384;-4.386;2022-08-21T05:24:47;17.52;76.68
73547;SHT30;61807;48.384;-4.386;2022-08-21T05:27:12;17.55;76.65
73547;SHT30;61807;48.384;-4.386;2022-08-21T05:29:38;17.58;76.55
73547;SHT30;61807;48.384;-4.386;2022-08-21T05:32:09;17.59;76.50
73547;SHT30;61807;48.384;-4.386;2022-08-21T05:34:34;17.62;76.49
73547;SHT30;61807;48.384;-4.386;2022-08-21T05:37:00;17.63;76.58
73547;SHT30;61807;48.384;-4.386;2022-08-21T05:39:25;17.66;76.61
73547;SHT30;61807;48.384;-4.386;2022-08-21T05:41:51;17.66;76.65
73547;SHT30;61807;48.384;-4.386;2022-08-21T05:44:16;17.66;76.35
73547;SHT30;61807;48.384;-4.386;2022-08-21T05:46:41;17.62;76.30
73547;SHT30;61807;48.384;-4.386;2022-08-21T05:49:07;17.56;76.33
73547;SHT30;61807;48.384;-4.386;2022-08-21T05:51:33;17.56;76.42
73547;SHT30;61807;48.384;-4.386;2022-08-21T05:53:58;17.55;76.37
73547;SHT30;61807;48.384;-4.386;2022-08-21T05:56:23;17.53;76.30
73547;SHT30;61807;48.384;-4.386;2022-08-21T05:58:49;17.49;76.43
73547;SHT30;61807;48.384;-4.386;2022-08-21T06:01:14;17.52;76.50
73547;SHT30;61807;48.384;-4.386;2022-08-21T06:03:41;17.53;76.65
73547;SHT30;61807;48.384;-4.386;2022-08-21T06:06:08;17.56;76.87
73547;SHT30;61807;48.384;-4.386;2022-08-21T06:08:35;17.56;76.98
73547;SHT30;61807;48.384;-4.386;2022-08-21T06:11:01;17.58;77.05
73547;SHT30;61807;48.384;-4.386;2022-08-21T06:13:27;17.59;77.05
73547;SHT30;61807;48.384;-4.386;2022-08-21T06:18:31;17.65;76.69
73547;SHT30;61807;48.384;-4.386;2022-08-21T06:20:57;17.65;76.76
73547;SHT30;61807;48.384;-4.386;2022-08-21T06:23:22;17.66;76.79
73547;SHT30;61807;48.384;-4.386;2022-08-21T06:25:48;17.70;76.63
73547;SHT30;61807;48.384;-4.386;2022-08-21T06:28:13;17.69;76.42
73547;SHT30;61807;48.384;-4.386;2022-08-21T06:30:39;17.69;76.39
73547;SHT30;61807;48.384;-4.386;2022-08-21T06:33:06;17.69;76.32
73547;SHT30;61807;48.384;-4.386;2022-08-21T06:35:33;17.66;76.36
73547;SHT30;61807;48.384;-4.386;2022-08-21T06:37:59;17.62;76.36
73547;SHT30;61807;48.384;-4.386;2022-08-21T06:40:26;17.62;76.42
73547;SHT30;61807;48.384;-4.386;2022-08-21T06:42:51;17.63;76.51
73547;SHT30;61807;48.384;-4.386;2022-08-21T06:45:17;17.59;76.51
73547;SHT30;61807;48.384;-4.386;2022-08-21T06:47:42;17.56;76.68
73547;SHT30;61807;48.384;-4.386;2022-08-21T06:50:08;17.53;76.70
73547;SHT30;61807;48.384;-4.386;2022-08-21T06:52:37;17.53;76.87
73547;SHT30;61807;48.384;-4.386;2022-08-21T06:55:08;17.52;76.98
73547;SHT30;61807;48.384;-4.386;2022-08-21T06:57:34;17.51;76.96
73547;SHT30;61807;48.384;-4.386;2022-08-21T07:00:02;17.51;77.26
73547;SHT30;61807;48.384;-4.386;2022-08-21T07:02:28;17.46;77.20
73547;SHT30;61807;48.384;-4.386;2022-08-21T07:04:54;17.45;77.30
73547;SHT30;61807;48.384;-4.386;2022-08-21T07:07:19;17.46;77.37
73547;SHT30;61807;48.384;-4.386;2022-08-21T07:09:45;17.45;77.48
73547;SHT30;61807;48.384;-4.386;2022-08-21T07:12:10;17.46;77.82
73547;SHT30;61807;48.384;-4.386;2022-08-21T07:14:36;17.49;77.89
73547;SHT30;61807;48.384;-4.386;2022-08-21T07:17:02;17.51;78.10
73547;SHT30;61807;48.384;-4.386;2022-08-21T07:19:27;17.55;78.08
73547;SHT30;61807;48.384;-4.386;2022-08-21T07:21:58;17.59;78.20
73547;SHT30;61807;48.384;-4.386;2022-08-21T07:24:25;17.63;78.27
73547;SHT30;61807;48.384;-4.386;2022-08-21T07:26:50;17.66;78.29
73547;SHT30;61807;48.384;-4.386;2022-08-21T07:29:16;17.65;78.22
73547;SHT30;61807;48.384;-4.386;2022-08-21T07:31:42;17.65;78.28
73547;SHT30;61807;48.384;-4.386;2022-08-21T07:34:07;17.66;78.23
73547;SHT30;61807;48.384;-4.386;2022-08-21T07:36:33;17.66;78.46
73547;SHT30;61807;48.384;-4.386;2022-08-21T07:38:59;17.65;78.51
73547;SHT30;61807;48.384;-4.386;2022-08-21T07:41:27;17.62;78.45
73547;SHT30;61807;48.384;-4.386;2022-08-21T07:43:55;17.58;78.98
73547;SHT30;61807;48.384;-4.386;2022-08-21T07:46:20;17.61;78.97
73547;SHT30;61807;48.384;-4.386;2022-08-21T07:48:46;17.61;79.00
73547;SHT30;61807;48.384;-4.386;2022-08-21T07:51:13;17.65;79.18
73547;SHT30;61807;48.384;-4.386;2022-08-21T07:53:39;17.70;79.26
73547;SHT30;61807;48.384;-4.386;2022-08-21T07:56:06;17.73;79.26
73547;SHT30;61807;48.384;-4.386;2022-08-21T07:58:33;17.69;79.28
73547;SHT30;61807;48.384;-4.386;2022-08-21T08:00:59;17.72;79.36
73547;SHT30;61807;48.384;-4.386;2022-08-21T08:03:25;17.73;79.40
73547;SHT30;61807;48.384;-4.386;2022-08-21T08:05:50;17.75;79.62
73547;SHT30;61807;48.384;-4.386;2022-08-21T08:08:16;17.76;79.34
73547;SHT30;61807;48.384;-4.386;2022-08-21T08:10:43;17.78;79.51
73547;SHT30;61807;48.384;-4.386;2022-08-21T08:13:09;17.73;79.82
73547;SHT30;61807;48.384;-4.386;2022-08-21T08:15:35;17.72;79.93
73547;SHT30;61807;48.384;-4.386;2022-08-21T08:18:01;17.70;80.12
73547;SHT30;61807;48.384;-4.386;2022-08-21T08:20:26;17.70;80.35
73547;SHT30;61807;48.384;-4.386;2022-08-21T08:22:53;17.69;80.55
73547;SHT30;61807;48.384;-4.386;2022-08-21T08:25:20;17.70;80.49
73547;SHT30;61807;48.384;-4.386;2022-08-21T08:27:46;17.70;80.54
73547;SHT30;61807;48.384;-4.386;2022-08-21T08:30:14;17.72;80.56
73547;SHT30;61807;48.384;-4.386;2022-08-21T08:32:40;17.76;80.40
73547;SHT30;61807;48.384;-4.386;2022-08-21T08:35:07;17.83;80.88
73547;SHT30;61807;48.384;-4.386;2022-08-21T08:37:33;17.90;80.43
73547;SHT30;61807;48.384;-4.386;2022-08-21T08:39:59;17.99;80.48
73547;SHT30;61807;48.384;-4.386;2022-08-21T08:42:35;18.06;80.66
73547;SHT30;61807;48.384;-4.386;2022-08-21T08:47:42;18.18;80.39
73547;SHT30;61807;48.384;-4.386;2022-08-21T08:50:44;18.24;80.40
73547;SHT30;61807;48.384;-4.386;2022-08-21T08:53:17;18.23;80.23
73547;SHT30;61807;48.384;-4.386;2022-08-21T08:55:45;18.28;80.25
73547;SHT30;61807;48.384;-4.386;2022-08-21T08:58:16;18.30;80.22
73547;SHT30;61807;48.384;-4.386;2022-08-21T09:00:47;18.34;80.17
73547;SHT30;61807;48.384;-4.386;2022-08-21T09:03:15;18.43;80.17
73547;SHT30;61807;48.384;-4.386;2022-08-21T09:05:46;18.51;79.98
73547;SHT30;61807;48.384;-4.386;2022-08-21T09:08:49;18.55;79.95
73547;SHT30;61807;48.384;-4.386;2022-08-21T09:11:48;18.67;79.75
73547;SHT30;61807;48.384;-4.386;2022-08-21T09:17:09;18.85;79.60
73547;SHT30;61807;48.384;-4.386;2022-08-21T09:27:56;19.19;78.89
73547;SHT30;61807;48.384;-4.386;2022-08-21T09:30:30;19.29;79.16
73547;SHT30;61807;48.384;-4.386;2022-08-21T09:32:56;19.37;79.00
73547;SHT30;61807;48.384;-4.386;2022-08-21T09:35:22;19.47;78.84
73547;SHT30;61807;48.384;-4.386;2022-08-21T09:43:01;19.63;78.38
73547;SHT30;61807;48.384;-4.386;2022-08-21T09:45:30;19.63;78.52
73547;SHT30;61807;48.384;-4.386;2022-08-21T09:47:56;19.68;78.51
73547;SHT30;61807;48.384;-4.386;2022-08-21T09:50:24;19.74;78.35
73547;SHT30;61807;48.384;-4.386;2022-08-21T09:52:54;19.78;78.38
73547;SHT30;61807;48.384;-4.386;2022-08-21T09:55:28;19.88;78.31
73547;SHT30;61807;48.384;-4.386;2022-08-21T09:58:14;19.87;78.05
73547;SHT30;61807;48.384;-4.386;2022-08-21T10:00:40;19.89;78.07
73547;SHT30;61807;48.384;-4.386;2022-08-21T10:05:38;20.05;77.83
73547;SHT30;61807;48.384;-4.386;2022-08-21T10:08:04;20.12;77.68
73547;SHT30;61807;48.384;-4.386;2022-08-21T10:10:32;20.16;77.90
73547;SHT30;61807;48.384;-4.386;2022-08-21T10:13:24;20.26;77.84
73547;SHT30;61807;48.384;-4.386;2022-08-21T10:16:20;20.35;77.93
73547;SHT30;61807;48.384;-4.386;2022-08-21T10:21:35;20.43;77.53
73547;SHT30;61807;48.384;-4.386;2022-08-21T10:24:45;20.47;77.37
73547;SHT30;61807;48.384;-4.386;2022-08-21T10:27:47;20.50;77.09
73547;SHT30;61807;48.384;-4.386;2022-08-21T10:33:20;20.42;77.04
73547;SHT30;61807;48.384;-4.386;2022-08-21T10:36:01;20.40;77.15
73547;SHT30;61807;48.384;-4.386;2022-08-21T10:43:58;20.40;77.51
73547;SHT30;61807;48.384;-4.386;2022-08-21T10:54:52;20.53;77.65
73547;SHT30;61807;48.384;-4.386;2022-08-21T11:00:14;20.52;77.69
73547;SHT30;61807;48.384;-4.386;2022-08-21T11:02:56;20.53;77.77
73547;SHT30;61807;48.384;-4.386;2022-08-21T11:05:42;20.47;77.73
73547;SHT30;61807;48.384;-4.386;2022-08-21T11:08:17;20.49;77.63
73547;SHT30;61807;48.384;-4.386;2022-08-21T11:10:50;20.47;77.96
73547;SHT30;61807;48.384;-4.386;2022-08-21T11:13:19;20.54;77.84
73547;SHT30;61807;48.384;-4.386;2022-08-21T11:16:02;20.62;77.67
73547;SHT30;61807;48.384;-4.386;2022-08-21T11:18:45;20.70;77.87
73547;SHT30;61807;48.384;-4.386;2022-08-21T11:26:47;20.73;77.72
73547;SHT30;61807;48.384;-4.386;2022-08-21T11:29:22;20.72;77.76
73547;SHT30;61807;48.384;-4.386;2022-08-21T11:37:21;20.73;77.65
73547;SHT30;61807;48.384;-4.386;2022-08-21T11:40:00;20.73;77.88
73547;SHT30;61807;48.384;-4.386;2022-08-21T11:50:40;20.72;77.76
73547;SHT30;61807;48.384;-4.386;2022-08-21T11:53:21;20.64;77.80
73547;SHT30;61807;48.384;-4.386;2022-08-21T11:55:55;20.57;77.93
73547;SHT30;61807;48.384;-4.386;2022-08-21T11:58:35;20.45;77.66
73547;SHT30;61807;48.384;-4.386;2022-08-21T12:01:12;20.37;77.85
73547;SHT30;61807;48.384;-4.386;2022-08-21T12:03:55;20.28;77.63
73547;SHT30;61807;48.384;-4.386;2022-08-21T12:06:34;20.25;78.03
73547;SHT30;61807;48.384;-4.386;2022-08-21T12:09:05;20.33;77.90
73547;SHT30;61807;48.384;-4.386;2022-08-21T12:11:31;20.42;77.90
73547;SHT30;61807;48.384;-4.386;2022-08-21T12:14:13;20.54;77.82
73547;SHT30;61807;48.384;-4.386;2022-08-21T12:16:45;20.62;77.56
73547;SHT30;61807;48.384;-4.386;2022-08-21T12:19:12;20.70;77.59
73547;SHT30;61807;48.384;-4.386;2022-08-21T12:24:36;20.90;77.47
73547;SHT30;61807;48.384;-4.386;2022-08-21T12:29:54;21.17;76.93
73547;SHT30;61807;48.384;-4.386;2022-08-21T12:32:27;21.34;76.55
73547;SHT30;61807;48.384;-4.386;2022-08-21T12:35:02;21.66;76.76
73547;SHT30;61807;48.384;-4.386;2022-08-21T12:37:43;21.96;75.32
73547;SHT30;61807;48.384;-4.386;2022-08-21T12:42:44;22.44;74.52
73547;SHT30;61807;48.384;-4.386;2022-08-21T12:45:21;22.78;74.10
73547;SHT30;61807;48.384;-4.386;2022-08-21T12:47:50;23.05;72.91
73547;SHT30;61807;48.384;-4.386;2022-08-21T12:50:36;23.43;72.48
73547;SHT30;61807;48.384;-4.386;2022-08-21T12:53:09;23.85;71.39
73547;SHT30;61807;48.384;-4.386;2022-08-21T12:55:40;24.16;71.12
73547;SHT30;61807;48.384;-4.386;2022-08-21T12:58:06;24.19;70.55
73547;SHT30;61807;48.384;-4.386;2022-08-21T13:00:32;24.11;69.58
73547;SHT30;61807;48.384;-4.386;2022-08-21T13:02:57;23.97;69.91
73547;SHT30;61807;48.384;-4.386;2022-08-21T13:05:44;23.77;68.85
73547;SHT30;61807;48.384;-4.386;2022-08-21T13:08:12;23.68;69.97
73547;SHT30;61807;48.384;-4.386;2022-08-21T13:10:40;23.66;70.37
73547;SHT30;61807;48.384;-4.386;2022-08-21T13:13:10;23.66;70.22
73547;SHT30;61807;48.384;-4.386;2022-08-21T13:15:40;23.64;70.70
73547;SHT30;61807;48.384;-4.386;2022-08-21T13:18:06;23.77;70.56
73547;SHT30;61807;48.384;-4.386;2022-08-21T13:20:39;23.91;70.02
73547;SHT30;61807;48.384;-4.386;2022-08-21T13:23:27;23.94;69.95
73547;SHT30;61807;48.384;-4.386;2022-08-21T13:25:54;23.97;69.64
73547;SHT30;61807;48.384;-4.386;2022-08-21T13:28:19;23.93;69.91
73547;SHT30;61807;48.384;-4.386;2022-08-21T13:30:49;23.95;69.65
73547;SHT30;61807;48.384;-4.386;2022-08-21T13:33:19;24.11;68.60
73547;SHT30;61807;48.384;-4.386;2022-08-21T13:38:19;24.60;66.98
73547;SHT30;61807;48.384;-4.386;2022-08-21T13:40:55;24.60;67.76
73547;SHT30;61807;48.384;-4.386;2022-08-21T13:43:26;24.48;67.59
73547;SHT30;61807;48.384;-4.386;2022-08-21T13:45:55;24.21;66.33
73547;SHT30;61807;48.384;-4.386;2022-08-21T13:48:24;24.02;67.89
73547;SHT30;61807;48.384;-4.386;2022-08-21T13:50:51;23.81;67.97
73547;SHT30;61807;48.384;-4.386;2022-08-21T13:53:29;23.61;68.46
73547;SHT30;61807;48.384;-4.386;2022-08-21T13:55:56;23.45;69.32
73547;SHT30;61807;48.384;-4.386;2022-08-21T13:58:31;23.30;69.67
73547;SHT30;61807;48.384;-4.386;2022-08-21T14:00:58;23.20;69.49
73547;SHT30;61807;48.384;-4.386;2022-08-21T14:03:45;23.15;70.00
73547;SHT30;61807;48.384;-4.386;2022-08-21T14:06:16;23.13;70.40
73547;SHT30;61807;48.384;-4.386;2022-08-21T14:08:50;23.16;70.11
73547;SHT30;61807;48.384;-4.386;2022-08-21T14:11:16;23.13;69.77
73547;SHT30;61807;48.384;-4.386;2022-08-21T14:13:56;23.06;69.83
73547;SHT30;61807;48.384;-4.386;2022-08-21T14:16:25;23.00;68.94
73547;SHT30;61807;48.384;-4.386;2022-08-21T14:21:36;22.91;68.58
73547;SHT30;61807;48.384;-4.386;2022-08-21T14:26:57;22.78;69.01
73547;SHT30;61807;48.384;-4.386;2022-08-21T14:29:28;22.72;69.22
73547;SHT30;61807;48.384;-4.386;2022-08-21T14:31:59;22.64;68.84
73547;SHT30;61807;48.384;-4.386;2022-08-21T14:34:27;22.54;68.66
73547;SHT30;61807;48.384;-4.386;2022-08-21T14:36:53;22.44;68.62
73547;SHT30;61807;48.384;-4.386;2022-08-21T14:39:20;22.38;69.36
73547;SHT30;61807;48.384;-4.386;2022-08-21T14:41:46;22.41;69.68
73547;SHT30;61807;48.384;-4.386;2022-08-21T14:44:14;22.43;69.24
73547;SHT30;61807;48.384;-4.386;2022-08-21T14:46:39;22.41;69.68
73547;SHT30;61807;48.384;-4.386;2022-08-21T14:49:05;22.43;69.65
73547;SHT30;61807;48.384;-4.386;2022-08-21T14:51:30;22.41;69.44
73547;SHT30;61807;48.384;-4.386;2022-08-21T14:53:56;22.36;69.25
73547;SHT30;61807;48.384;-4.386;2022-08-21T14:56:22;22.38;68.70
73547;SHT30;61807;48.384;-4.386;2022-08-21T14:58:49;22.40;68.78
73547;SHT30;61807;48.384;-4.386;2022-08-21T15:01:18;22.38;69.46
73547;SHT30;61807;48.384;-4.386;2022-08-21T15:03:45;22.36;69.42
73547;SHT30;61807;48.384;-4.386;2022-08-21T15:06:11;22.29;69.31
73547;SHT30;61807;48.384;-4.386;2022-08-21T15:08:37;22.27;70.04
73547;SHT30;61807;48.384;-4.386;2022-08-21T15:11:04;22.30;70.13
73547;SHT30;61807;48.384;-4.386;2022-08-21T15:13:31;22.27;70.11
73547;SHT30;61807;48.384;-4.386;2022-08-21T15:15:57;22.33;69.93
73547;SHT30;61807;48.384;-4.386;2022-08-21T15:18:25;22.33;70.11
73547;SHT30;61807;48.384;-4.386;2022-08-21T15:20:51;22.33;69.75
73547;SHT30;61807;48.384;-4.386;2022-08-21T15:23:17;22.30;69.32
73547;SHT30;61807;48.384;-4.386;2022-08-21T15:25:45;22.29;69.29
73547;SHT30;61807;48.384;-4.386;2022-08-21T15:28:11;22.30;69.70
73547;SHT30;61807;48.384;-4.386;2022-08-21T15:30:38;22.31;69.32
73547;SHT30;61807;48.384;-4.386;2022-08-21T15:33:04;22.36;69.35
73547;SHT30;61807;48.384;-4.386;2022-08-21T15:35:30;22.36;68.72
73547;SHT30;61807;48.384;-4.386;2022-08-21T15:37:56;22.30;69.21
73547;SHT30;61807;48.384;-4.386;2022-08-21T15:40:22;22.31;69.29
73547;SHT30;61807;48.384;-4.386;2022-08-21T15:42:47;22.27;69.10
73547;SHT30;61807;48.384;-4.386;2022-08-21T15:45:13;22.17;69.70
73547;SHT30;61807;48.384;-4.386;2022-08-21T15:47:43;22.10;69.94
73547;SHT30;61807;48.384;-4.386;2022-08-21T15:50:10;22.09;70.35
73547;SHT30;61807;48.384;-4.386;2022-08-21T15:52:36;22.03;70.81
73547;SHT30;61807;48.384;-4.386;2022-08-21T15:55:03;22.04;70.52
73547;SHT30;61807;48.384;-4.386;2022-08-21T15:57:29;21.99;70.72
73547;SHT30;61807;48.384;-4.386;2022-08-21T16:00:00;22.01;70.95
73547;SHT30;61807;48.384;-4.386;2022-08-21T16:02:37;22.01;70.79
73547;SHT30;61807;48.384;-4.386;2022-08-21T16:05:03;21.97;70.88
73547;SHT30;61807;48.384;-4.386;2022-08-21T16:07:29;21.96;71.00
73547;SHT30;61807;48.384;-4.386;2022-08-21T16:09:54;21.99;70.83
73547;SHT30;61807;48.384;-4.386;2022-08-21T16:12:26;22.04;71.02
73547;SHT30;61807;48.384;-4.386;2022-08-21T16:14:53;22.07;71.30
73547;SHT30;61807;48.384;-4.386;2022-08-21T16:17:20;22.10;71.17
73547;SHT30;61807;48.384;-4.386;2022-08-21T16:19:46;22.04;71.45
73547;SHT30;61807;48.384;-4.386;2022-08-21T16:22:11;21.94;71.71
73547;SHT30;61807;48.384;-4.386;2022-08-21T16:24:37;21.90;72.10
73547;SHT30;61807;48.384;-4.386;2022-08-21T16:27:03;21.82;72.16
73547;SHT30;61807;48.384;-4.386;2022-08-21T16:29:36;21.72;72.47
73547;SHT30;61807;48.384;-4.386;2022-08-21T16:32:01;21.62;72.73
73547;SHT30;61807;48.384;-4.386;2022-08-21T16:34:27;21.58;72.94
73547;SHT30;61807;48.384;-4.386;2022-08-21T16:36:53;21.55;72.98
73547;SHT30;61807;48.384;-4.386;2022-08-21T16:39:18;21.55;73.13
73547;SHT30;61807;48.384;-4.386;2022-08-21T16:41:44;21.55;73.38
73547;SHT30;61807;48.384;-4.386;2022-08-21T16:44:10;21.49;73.31
73547;SHT30;61807;48.384;-4.386;2022-08-21T16:46:38;21.45;73.39
73547;SHT30;61807;48.384;-4.386;2022-08-21T16:49:04;21.42;73.37